Time;durP1;ratioP1;P1;durP2;ratioP2;P2;SDS_P1;SDS_P2;PMS_P1;PMS_P2;Temp;Humidity;BMP_temperature;BMP_pressure;BME280_temperature;BME280_humidity;BME280_pressure;Samples;Min_cycle;Max_cycle;Signal;HPM_P1;HPM_P2
2021/12/30 00:02:20;;;;;;;12.07;4.53;;;;;;;;;;6183240;23;20143;-91
2021/12/30 00:05:37;;;;;;;7.57;4.40;;;;;;;;;;6183336;23;20172;-92
2021/12/30 00:08:44;;;;;;;8.83;4.17;;;;;;;;;;6185101;23;20192;-92
2021/12/30 00:11:49;;;;;;;12.00;4.67;;;;;;;;;;6184670;23;20306;-93
2021/12/30 00:14:55;;;;;;;10.60;3.93;;;;;;;;;;6186442;23;20622;-91
2021/12/30 00:18:02;;;;;;;6.93;4.27;;;;;;;;;;6184805;23;20207;-92
2021/12/30 00:21:07;;;;;;;7.83;4.43;;;;;;;;;;6186449;23;20166;-92
2021/12/30 00:24:14;;;;;;;8.07;4.27;;;;;;;;;;6188180;23;20168;-92
2021/12/30 00:27:21;;;;;;;9.10;4.30;;;;;;;;;;6185521;23;20168;-93
2021/12/30 00:30:27;;;;;;;8.93;4.30;;;;;;;;;;6187882;23;20187;-92
2021/12/30 00:33:34;;;;;;;8.50;4.27;;;;;;;;;;6187575;23;20156;-93
2021/12/30 00:36:39;;;;;;;7.80;4.10;;;;;;;;;;6187913;23;20172;-92
2021/12/30 00:39:47;;;;;;;7.17;3.93;;;;;;;;;;6187844;23;20175;-92
2021/12/30 00:42:52;;;;;;;9.93;4.60;;;;;;;;;;6188922;23;20160;-91
2021/12/30 00:45:58;;;;;;;8.97;4.90;;;;;;;;;;6190024;23;20172;-92
2021/12/30 00:49:03;;;;;;;9.87;5.30;;;;;;;;;;6188061;23;20195;-91
2021/12/30 00:52:08;;;;;;;7.83;4.07;;;;;;;;;;6189058;23;20168;-90
2021/12/30 00:55:15;;;;;;;7.30;4.10;;;;;;;;;;6188015;23;20179;-91
2021/12/30 00:58:20;;;;;;;6.57;4.00;;;;;;;;;;6186229;23;20543;-92
2021/12/30 01:01:26;;;;;;;8.10;4.13;;;;;;;;;;6173438;23;20188;-93
2021/12/30 01:04:32;;;;;;;6.83;3.80;;;;;;;;;;6174098;23;20160;-92
2021/12/30 01:07:37;;;;;;;8.53;3.90;;;;;;;;;;6172734;23;20172;-92
2021/12/30 01:10:43;;;;;;;8.37;3.97;;;;;;;;;;6172620;23;20200;-91
2021/12/30 01:13:56;;;;;;;9.60;4.07;;;;;;;;;;6173917;23;20301;-90
2021/12/30 01:17:13;;;;;;;11.77;3.87;;;;;;;;;;6170443;23;20173;-90
2021/12/30 01:20:21;;;;;;;9.13;4.10;;;;;;;;;;6171160;23;20157;-90
2021/12/30 01:23:26;;;;;;;9.80;5.10;;;;;;;;;;6171128;23;20167;-92
2021/12/30 01:26:32;;;;;;;9.70;4.73;;;;;;;;;;6171223;23;20167;-92
2021/12/30 01:29:38;;;;;;;7.50;4.20;;;;;;;;;;6170322;23;20196;-91
2021/12/30 01:32:44;;;;;;;9.60;4.67;;;;;;;;;;6170130;23;20169;-92
2021/12/30 01:39:39;;;;;;;10.70;4.87;;;;;;;;;;6173597;23;20276;-91
2021/12/30 01:42:45;;;;;;;7.53;3.93;;;;;;;;;;6174191;23;20164;-92
2021/12/30 01:45:51;;;;;;;8.63;4.30;;;;;;;;;;6172544;23;20168;-91
2021/12/30 01:48:57;;;;;;;7.67;4.00;;;;;;;;;;6173326;23;20151;-92
2021/12/30 01:52:02;;;;;;;7.23;3.90;;;;;;;;;;6174540;23;20168;-92
2021/12/30 01:55:08;;;;;;;7.00;4.13;;;;;;;;;;6174243;23;20173;-91
2021/12/30 01:58:15;;;;;;;8.20;3.93;;;;;;;;;;6175139;23;20164;-92
2021/12/30 02:01:21;;;;;;;8.47;3.90;;;;;;;;;;6172587;23;20160;-93
2021/12/30 02:04:26;;;;;;;8.77;4.80;;;;;;;;;;6171510;23;20152;-91
2021/12/30 02:07:31;;;;;;;11.10;4.90;;;;;;;;;;6172367;23;20161;-93
2021/12/30 02:10:36;;;;;;;9.63;5.00;;;;;;;;;;6173004;23;20200;-91
2021/12/30 02:13:43;;;;;;;8.13;4.60;;;;;;;;;;6171694;23;20660;-91
2021/12/30 02:16:48;;;;;;;8.37;4.73;;;;;;;;;;6170378;23;20164;-92
2021/12/30 02:19:57;;;;;;;9.47;5.00;;;;;;;;;;6172836;23;20225;-92
2021/12/30 02:23:03;;;;;;;8.63;4.57;;;;;;;;;;6172665;23;20164;-91
2021/12/30 02:26:10;;;;;;;10.20;4.57;;;;;;;;;;6174674;23;20169;-92
2021/12/30 02:29:15;;;;;;;9.50;4.50;;;;;;;;;;6171299;23;20176;-92
2021/12/30 02:32:22;;;;;;;6.93;4.20;;;;;;;;;;6171624;23;20168;-92
2021/12/30 02:39:22;;;;;;;8.33;4.57;;;;;;;;;;6173439;23;20184;-92
2021/12/30 02:42:28;;;;;;;6.20;4.07;;;;;;;;;;6175119;23;20489;-91
2021/12/30 02:45:33;;;;;;;10.77;4.77;;;;;;;;;;6174717;23;20656;-92
2021/12/30 02:48:41;;;;;;;7.83;4.13;;;;;;;;;;6173254;23;20623;-90
2021/12/30 02:51:46;;;;;;;9.87;4.70;;;;;;;;;;6174202;23;20164;-91
2021/12/30 02:54:53;;;;;;;7.07;3.80;;;;;;;;;;6172167;23;20168;-91
2021/12/30 02:57:59;;;;;;;8.93;4.43;;;;;;;;;;6156021;23;20491;-92
2021/12/30 03:01:05;;;;;;;8.83;4.50;;;;;;;;;;6172451;23;20180;-92
2021/12/30 03:04:12;;;;;;;7.73;4.17;;;;;;;;;;6173494;23;20212;-92
2021/12/30 03:07:18;;;;;;;9.40;4.83;;;;;;;;;;6171687;23;20172;-92
2021/12/30 03:10:27;;;;;;;10.10;5.00;;;;;;;;;;6171294;23;20193;-92
2021/12/30 03:13:33;;;;;;;9.00;4.47;;;;;;;;;;6170601;23;20550;-92
2021/12/30 03:16:41;;;;;;;11.17;4.53;;;;;;;;;;6170079;23;20224;-92
2021/12/30 03:19:46;;;;;;;9.20;4.40;;;;;;;;;;6169529;23;20226;-92
2021/12/30 03:22:52;;;;;;;9.10;4.53;;;;;;;;;;6169919;23;20164;-91
2021/12/30 03:25:59;;;;;;;8.90;4.47;;;;;;;;;;6172483;23;20196;-91
2021/12/30 03:29:05;;;;;;;8.53;4.43;;;;;;;;;;6171117;23;20493;-92
2021/12/30 03:32:10;;;;;;;7.50;4.57;;;;;;;;;;6172046;23;20173;-91
2021/12/30 03:35:15;;;;;;;7.73;4.63;;;;;;;;;;6170044;23;20176;-93
2021/12/30 03:38:21;;;;;;;11.50;4.60;;;;;;;;;;6171833;23;20237;-92
2021/12/30 03:41:28;;;;;;;8.13;4.17;;;;;;;;;;6170922;23;20234;-92
2021/12/30 03:44:33;;;;;;;9.17;4.73;;;;;;;;;;6169856;23;20160;-92
2021/12/30 03:47:42;;;;;;;8.17;4.20;;;;;;;;;;6170811;23;20228;-93
2021/12/30 03:50:49;;;;;;;9.77;4.80;;;;;;;;;;6170477;23;20691;-91
2021/12/30 03:53:55;;;;;;;7.97;4.33;;;;;;;;;;6172279;23;20504;-91
2021/12/30 03:57:01;;;;;;;7.70;4.37;;;;;;;;;;6172190;23;20247;-90
2021/12/30 04:00:08;;;;;;;8.23;4.40;;;;;;;;;;6171364;23;20195;-91
2021/12/30 04:03:12;;;;;;;9.00;4.43;;;;;;;;;;6172366;23;20159;-92
2021/12/30 04:06:18;;;;;;;10.37;4.50;;;;;;;;;;6170738;23;20216;-91
2021/12/30 04:09:24;;;;;;;8.87;4.97;;;;;;;;;;6174392;23;20169;-92
2021/12/30 04:12:30;;;;;;;10.07;4.63;;;;;;;;;;6174153;23;20181;-91
2021/12/30 04:15:35;;;;;;;9.00;5.00;;;;;;;;;;6172365;23;20168;-91
2021/12/30 04:18:40;;;;;;;11.03;5.03;;;;;;;;;;6171015;23;20252;-91
2021/12/30 04:21:45;;;;;;;11.00;5.17;;;;;;;;;;6171879;23;20292;-91
2021/12/30 04:24:51;;;;;;;9.43;4.60;;;;;;;;;;6171231;23;20172;-92
2021/12/30 04:27:58;;;;;;;10.03;4.73;;;;;;;;;;6171340;23;20168;-91
2021/12/30 04:31:03;;;;;;;9.00;4.57;;;;;;;;;;6173261;23;20200;-92
2021/12/30 04:34:09;;;;;;;11.00;4.60;;;;;;;;;;6173569;23;20259;-91
2021/12/30 04:37:14;;;;;;;10.30;5.00;;;;;;;;;;6171036;23;20283;-92
2021/12/30 04:40:19;;;;;;;9.10;5.13;;;;;;;;;;6170837;23;20268;-92
2021/12/30 04:43:25;;;;;;;9.00;4.70;;;;;;;;;;6171870;23;20226;-91
2021/12/30 04:46:33;;;;;;;12.30;5.67;;;;;;;;;;6171990;23;20168;-92
2021/12/30 04:49:38;;;;;;;12.87;5.53;;;;;;;;;;6172575;23;20156;-92
2021/12/30 04:52:44;;;;;;;11.77;5.00;;;;;;;;;;6174652;23;20213;-91
2021/12/30 04:55:49;;;;;;;11.60;5.70;;;;;;;;;;6172770;23;20240;-91
2021/12/30 04:58:57;;;;;;;12.97;4.70;;;;;;;;;;6176386;23;20172;-93
2021/12/30 05:02:36;;;;;;;11.80;5.60;;;;;;;;;;6184209;23;20179;-92
2021/12/30 05:05:44;;;;;;;8.00;4.23;;;;;;;;;;6185242;23;20172;-93
2021/12/30 05:08:49;;;;;;;9.13;4.53;;;;;;;;;;6185284;23;20192;-91
2021/12/30 05:11:55;;;;;;;10.47;5.07;;;;;;;;;;6185216;23;20234;-92
2021/12/30 05:15:01;;;;;;;9.93;4.77;;;;;;;;;;6186915;23;20203;-91
2021/12/30 05:18:07;;;;;;;10.07;4.60;;;;;;;;;;6184844;23;20179;-93
2021/12/30 05:21:12;;;;;;;9.90;4.57;;;;;;;;;;6185150;23;20637;-90
2021/12/30 05:24:17;;;;;;;9.70;4.90;;;;;;;;;;6184817;23;20164;-90
2021/12/30 05:27:22;;;;;;;10.83;5.70;;;;;;;;;;6184076;23;20167;-91
2021/12/30 05:30:29;;;;;;;12.03;5.87;;;;;;;;;;6183045;23;20635;-92
2021/12/30 05:33:34;;;;;;;11.13;5.43;;;;;;;;;;6183259;23;20687;-91
2021/12/30 05:36:40;;;;;;;13.70;5.20;;;;;;;;;;6182405;23;20171;-92
2021/12/30 05:39:44;;;;;;;9.87;5.13;;;;;;;;;;6182691;23;20172;-91
2021/12/30 05:42:50;;;;;;;8.60;4.77;;;;;;;;;;6183691;23;20173;-90
2021/12/30 05:45:56;;;;;;;10.93;4.83;;;;;;;;;;6182340;23;20290;-92
2021/12/30 05:49:01;;;;;;;10.23;5.07;;;;;;;;;;6182315;23;20159;-91
2021/12/30 05:52:07;;;;;;;10.27;5.30;;;;;;;;;;6182011;23;20258;-91
2021/12/30 05:55:13;;;;;;;14.53;5.13;;;;;;;;;;6180745;23;20211;-91
2021/12/30 05:58:18;;;;;;;11.23;5.37;;;;;;;;;;6180287;23;20191;-92
2021/12/30 06:01:24;;;;;;;11.23;5.60;;;;;;;;;;6169576;23;20176;-91
2021/12/30 06:04:29;;;;;;;10.37;5.47;;;;;;;;;;6168865;23;20180;-92
2021/12/30 06:07:34;;;;;;;10.90;5.50;;;;;;;;;;6169422;23;20165;-90
2021/12/30 06:10:40;;;;;;;10.50;5.30;;;;;;;;;;6170531;23;20232;-92
2021/12/30 06:13:45;;;;;;;10.90;5.20;;;;;;;;;;6170284;23;20172;-90
2021/12/30 06:16:56;;;;;;;10.83;5.50;;;;;;;;;;6169706;23;20156;-91
2021/12/30 06:20:01;;;;;;;9.20;5.13;;;;;;;;;;6169840;23;20168;-92
2021/12/30 06:23:22;;;;;;;10.77;5.70;;;;;;;;;;6171092;23;20220;-92
2021/12/30 06:26:27;;;;;;;11.40;5.67;;;;;;;;;;6170600;23;20172;-91
2021/12/30 06:29:34;;;;;;;11.10;4.97;;;;;;;;;;6171497;23;20177;-90
2021/12/30 06:32:41;;;;;;;11.93;6.00;;;;;;;;;;6169920;23;20168;-91
2021/12/30 06:35:46;;;;;;;11.13;5.40;;;;;;;;;;6171507;23;20168;-92
2021/12/30 06:38:52;;;;;;;10.47;5.67;;;;;;;;;;6171377;23;20208;-91
2021/12/30 06:41:57;;;;;;;11.90;5.23;;;;;;;;;;6171819;23;20172;-92
2021/12/30 06:45:03;;;;;;;11.47;5.00;;;;;;;;;;6170170;23;20196;-92
2021/12/30 06:48:13;;;;;;;10.57;5.40;;;;;;;;;;6170653;23;20168;-93
2021/12/30 06:51:21;;;;;;;10.87;5.53;;;;;;;;;;6169076;23;20207;-93
2021/12/30 06:54:28;;;;;;;10.60;5.60;;;;;;;;;;6172056;23;20156;-92
2021/12/30 06:57:33;;;;;;;13.67;6.13;;;;;;;;;;6171068;23;20233;-92
2021/12/30 07:00:38;;;;;;;10.70;5.40;;;;;;;;;;6170387;23;20184;-93
2021/12/30 07:03:45;;;;;;;12.33;5.40;;;;;;;;;;6172359;23;20168;-92
2021/12/30 07:06:52;;;;;;;14.93;5.70;;;;;;;;;;6173712;23;20164;-91
2021/12/30 07:09:57;;;;;;;9.37;5.17;;;;;;;;;;6173019;23;20160;-90
2021/12/30 07:13:03;;;;;;;8.50;4.83;;;;;;;;;;6173017;23;20172;-91
2021/12/30 07:16:08;;;;;;;9.87;4.67;;;;;;;;;;6173045;23;20233;-91
2021/12/30 07:19:15;;;;;;;9.40;5.13;;;;;;;;;;6173279;23;20230;-92
2021/12/30 07:22:20;;;;;;;10.10;5.30;;;;;;;;;;6173505;23;20160;-91
2021/12/30 07:25:25;;;;;;;9.30;4.87;;;;;;;;;;6172533;23;20165;-92
2021/12/30 07:28:30;;;;;;;8.77;5.03;;;;;;;;;;6175614;23;20229;-93
2021/12/30 07:31:36;;;;;;;11.67;5.30;;;;;;;;;;6175687;23;20260;-91
2021/12/30 07:34:42;;;;;;;10.30;5.23;;;;;;;;;;6176729;23;20243;-92
2021/12/30 07:37:48;;;;;;;10.30;5.30;;;;;;;;;;6175449;23;20632;-92
2021/12/30 07:40:54;;;;;;;14.83;5.40;;;;;;;;;;6176380;23;20169;-91
2021/12/30 07:44:00;;;;;;;11.27;5.63;;;;;;;;;;6176112;23;20152;-92
2021/12/30 07:47:06;;;;;;;12.20;5.50;;;;;;;;;;6177677;23;20212;-93
2021/12/30 07:50:13;;;;;;;15.17;6.43;;;;;;;;;;6176379;23;20192;-92
2021/12/30 07:53:20;;;;;;;18.50;6.90;;;;;;;;;;6176085;23;20176;-93
2021/12/30 07:56:26;;;;;;;16.90;6.60;;;;;;;;;;6175659;23;20224;-94
2021/12/30 07:59:30;;;;;;;14.80;6.70;;;;;;;;;;6187701;23;20294;-92
2021/12/30 08:02:36;;;;;;;10.63;6.23;;;;;;;;;;6187714;23;20164;-93
2021/12/30 08:05:44;;;;;;;12.20;6.53;;;;;;;;;;6190218;23;20219;-92
2021/12/30 08:08:50;;;;;;;11.63;6.37;;;;;;;;;;6189466;23;20591;-92
2021/12/30 08:11:56;;;;;;;11.23;6.40;;;;;;;;;;6188737;23;20246;-91
2021/12/30 08:15:01;;;;;;;11.17;6.33;;;;;;;;;;6191448;23;20197;-92
2021/12/30 08:18:06;;;;;;;12.30;7.67;;;;;;;;;;6188061;23;20168;-93
2021/12/30 08:21:14;;;;;;;12.10;6.57;;;;;;;;;;6187655;23;20176;-92
2021/12/30 08:24:21;;;;;;;12.63;6.77;;;;;;;;;;6186336;23;20151;-92
2021/12/30 08:27:26;;;;;;;14.63;6.03;;;;;;;;;;6187581;23;20655;-92
2021/12/30 08:30:36;;;;;;;11.87;6.23;;;;;;;;;;6189817;23;20167;-93
2021/12/30 08:33:41;;;;;;;12.27;5.40;;;;;;;;;;6188760;23;20172;-92
2021/12/30 08:36:47;;;;;;;11.23;6.30;;;;;;;;;;6186239;23;20167;-91
2021/12/30 08:40:01;;;;;;;13.30;5.70;;;;;;;;;;6183586;23;20200;-92
2021/12/30 08:43:07;;;;;;;10.33;5.97;;;;;;;;;;6184822;23;20224;-91
2021/12/30 08:46:13;;;;;;;10.57;5.33;;;;;;;;;;6185133;23;20160;-92
2021/12/30 08:49:18;;;;;;;9.63;5.93;;;;;;;;;;6185755;23;20219;-90
2021/12/30 08:52:28;;;;;;;11.10;5.23;;;;;;;;;;6184932;23;20207;-89
2021/12/30 08:55:33;;;;;;;11.33;5.50;;;;;;;;;;6185851;23;20176;-91
2021/12/30 08:58:38;;;;;;;12.30;6.23;;;;;;;;;;6184942;23;20191;-91
2021/12/30 09:01:44;;;;;;;13.60;7.50;;;;;;;;;;6185362;23;20203;-90
2021/12/30 09:04:49;;;;;;;13.47;7.17;;;;;;;;;;6188113;23;20168;-91
2021/12/30 09:07:56;;;;;;;14.73;7.33;;;;;;;;;;6185330;23;20168;-92
2021/12/30 09:11:02;;;;;;;12.43;6.67;;;;;;;;;;6186543;23;20156;-92
2021/12/30 09:14:07;;;;;;;10.33;6.10;;;;;;;;;;6185324;23;20199;-91
2021/12/30 09:17:13;;;;;;;13.47;6.33;;;;;;;;;;6187794;23;20148;-93
2021/12/30 09:20:19;;;;;;;16.07;7.60;;;;;;;;;;6184503;23;20186;-92
2021/12/30 09:23:26;;;;;;;11.50;6.50;;;;;;;;;;6187447;23;20219;-92
2021/12/30 09:26:31;;;;;;;11.93;6.60;;;;;;;;;;6186612;23;20235;-92
2021/12/30 09:29:37;;;;;;;14.03;6.80;;;;;;;;;;6187954;23;20176;-92
2021/12/30 09:32:43;;;;;;;20.00;8.23;;;;;;;;;;6189462;23;20180;-92
2021/12/30 09:35:50;;;;;;;11.40;6.60;;;;;;;;;;6189118;23;20167;-92
2021/12/30 09:38:56;;;;;;;11.93;6.77;;;;;;;;;;6188053;23;20164;-91
2021/12/30 09:42:02;;;;;;;14.27;7.73;;;;;;;;;;6189163;23;20176;-92
2021/12/30 09:45:11;;;;;;;11.83;6.37;;;;;;;;;;6189919;23;20156;-93
2021/12/30 09:48:17;;;;;;;14.60;7.57;;;;;;;;;;6188290;23;20160;-93
2021/12/30 09:51:34;;;;;;;14.37;6.90;;;;;;;;;;6187207;23;20211;-91
2021/12/30 09:54:42;;;;;;;11.50;6.33;;;;;;;;;;6185973;23;20168;-91
2021/12/30 09:57:47;;;;;;;19.63;7.50;;;;;;;;;;6187079;23;20183;-94
2021/12/30 10:00:52;;;;;;;20.17;7.50;;;;;;;;;;6173765;23;20236;-93
2021/12/30 10:03:58;;;;;;;20.63;9.57;;;;;;;;;;6175273;23;20151;-92
2021/12/30 10:07:04;;;;;;;14.30;7.53;;;;;;;;;;6175283;23;20208;-92
2021/12/30 10:10:32;;;;;;;10.03;5.53;;;;;;;;;;6175096;23;20184;-93
2021/12/30 10:13:50;;;;;;;11.23;6.63;;;;;;;;;;6173625;23;20216;-91
2021/12/30 10:17:13;;;;;;;15.63;7.17;;;;;;;;;;6172376;23;20240;-91
2021/12/30 10:20:24;;;;;;;11.97;6.80;;;;;;;;;;6173049;23;20244;-92
2021/12/30 10:23:30;;;;;;;18.23;7.87;;;;;;;;;;6174799;23;20168;-92
2021/12/30 10:26:51;;;;;;;16.77;8.63;;;;;;;;;;6174735;23;20156;-92
2021/12/30 10:44:53;;;;;;;16.10;7.73;;;;;;;;;;6068501;23;20249;-92
2021/12/30 10:47:58;;;;;;;15.48;7.30;;;;;;;;;;6065814;23;20158;-91
2021/12/30 10:51:11;;;;;;;15.03;7.73;;;;;;;;;;6066928;23;20158;-92
2021/12/30 10:54:18;;;;;;;17.00;7.70;;;;;;;;;;6067384;23;20194;-92
2021/12/30 10:57:28;;;;;;;15.67;7.83;;;;;;;;;;6066704;23;20170;-91
2021/12/30 11:00:36;;;;;;;22.53;10.07;;;;;;;;;;6067708;23;20572;-90
2021/12/30 11:03:42;;;;;;;23.98;10.60;;;;;;;;;;6071284;23;20171;-90
2021/12/30 11:06:48;;;;;;;19.08;8.90;;;;;;;;;;6072165;23;20555;-91
2021/12/30 11:09:55;;;;;;;16.48;8.13;;;;;;;;;;6071718;23;20510;-90
2021/12/30 11:13:10;;;;;;;19.77;8.02;;;;;;;;;;6071551;23;20202;-90
2021/12/30 11:16:17;;;;;;;17.00;8.40;;;;;;;;;;6069919;23;20167;-92
2021/12/30 11:19:23;;;;;;;17.63;7.70;;;;;;;;;;6067211;23;20250;-89
2021/12/30 11:22:31;;;;;;;20.73;8.85;;;;;;;;;;6069213;23;20176;-90
2021/12/30 11:25:39;;;;;;;18.30;9.18;;;;;;;;;;6068128;23;20211;-91
2021/12/30 11:28:46;;;;;;;21.05;10.02;;;;;;;;;;6068967;23;20159;-93
2021/12/30 11:31:53;;;;;;;30.90;12.80;;;;;;;;;;6069075;23;20266;-92
2021/12/30 11:35:01;;;;;;;17.60;9.57;;;;;;;;;;6068520;23;20250;-92
2021/12/30 11:38:07;;;;;;;21.43;8.73;;;;;;;;;;6070278;23;20176;-91
2021/12/30 11:41:17;;;;;;;18.93;8.60;;;;;;;;;;6072123;23;20154;-92
2021/12/30 11:44:36;;;;;;;17.30;8.15;;;;;;;;;;6070585;23;20226;-92
2021/12/30 11:47:47;;;;;;;18.52;8.32;;;;;;;;;;6070713;23;20170;-92
2021/12/30 11:51:02;;;;;;;16.45;8.73;;;;;;;;;;6070576;23;20175;-94
2021/12/30 11:54:23;;;;;;;21.77;10.70;;;;;;;;;;6069772;23;20210;-93
2021/12/30 11:57:32;;;;;;;22.73;10.07;;;;;;;;;;6072241;23;20155;-93
2021/12/30 12:00:39;;;;;;;19.95;10.10;;;;;;;;;;6072304;23;20166;-93
2021/12/30 12:03:47;;;;;;;21.13;9.52;;;;;;;;;;6069849;23;20219;-92
2021/12/30 12:07:05;;;;;;;18.92;9.20;;;;;;;;;;6069969;23;20154;-92
2021/12/30 12:10:18;;;;;;;21.80;10.48;;;;;;;;;;6071207;23;20658;-92
2021/12/30 12:13:42;;;;;;;28.80;12.60;;;;;;;;;;6070959;23;20182;-93
2021/12/30 12:16:50;;;;;;;28.40;13.23;;;;;;;;;;6072175;23;20199;-93
2021/12/30 12:19:57;;;;;;;25.92;11.18;;;;;;;;;;6073182;23;20158;-92
2021/12/30 12:23:30;;;;;;;19.58;9.43;;;;;;;;;;6072182;23;20160;-94
2021/12/30 12:26:40;;;;;;;23.38;9.63;;;;;;;;;;6071709;23;20220;-91
2021/12/30 12:29:48;;;;;;;25.65;11.00;;;;;;;;;;6069052;23;20218;-92
2021/12/30 12:32:54;;;;;;;31.77;13.38;;;;;;;;;;6068202;23;20235;-91
2021/12/30 12:36:02;;;;;;;27.05;13.32;;;;;;;;;;6067098;23;20178;-94
2021/12/30 12:39:08;;;;;;;28.38;12.70;;;;;;;;;;6066973;23;20179;-90
2021/12/30 12:42:13;;;;;;;27.33;12.32;;;;;;;;;;6066069;23;20198;-91
2021/12/30 12:45:19;;;;;;;26.55;12.82;;;;;;;;;;6068364;23;20196;-91
2021/12/30 12:48:26;;;;;;;25.02;12.60;;;;;;;;;;6071547;23;20179;-92
2021/12/30 12:51:33;;;;;;;31.50;12.98;;;;;;;;;;6068301;23;20227;-91
2021/12/30 12:54:40;;;;;;;25.92;13.75;;;;;;;;;;6067994;23;20183;-92
2021/12/30 12:57:46;;;;;;;27.00;13.95;;;;;;;;;;6068805;23;20158;-92
2021/12/30 13:00:51;;;;;;;27.15;13.82;;;;;;;;;;6070300;23;20203;-92
2021/12/30 13:03:58;;;;;;;27.92;12.25;;;;;;;;;;6069739;23;20211;-91
2021/12/30 14:44:33;;;;;;;25.05;13.30;;;;;;;;;;6145524;23;20174;-91
2021/12/30 14:47:39;;;;;;;29.15;12.75;;;;;;;;;;6128036;23;20172;-92
2021/12/30 14:50:45;;;;;;;29.35;13.77;;;;;;;;;;6144900;23;20209;-91
2021/12/30 14:53:50;;;;;;;36.78;18.95;;;;;;;;;;6127189;23;20204;-92
2021/12/30 14:56:55;;;;;;;34.13;15.05;;;;;;;;;;6129792;23;20168;-93
2021/12/30 15:00:02;;;;;;;27.25;13.30;;;;;;;;;;6129485;23;20189;-92
2021/12/30 15:03:07;;;;;;;55.63;20.02;;;;;;;;;;6128549;23;20177;-91
2021/12/30 15:06:13;;;;;;;39.65;16.10;;;;;;;;;;6128536;23;20177;-92
2021/12/30 15:09:18;;;;;;;237.05;66.55;;;;;;;;;;6128013;23;20174;-92
2021/12/30 15:12:27;;;;;;;40.78;15.63;;;;;;;;;;6129360;23;20193;-93
2021/12/30 15:15:35;;;;;;;99.13;38.13;;;;;;;;;;6127029;23;20156;-92
2021/12/30 15:18:42;;;;;;;85.78;34.83;;;;;;;;;;6128468;23;20656;-91
2021/12/30 15:21:48;;;;;;;82.90;32.53;;;;;;;;;;6127957;23;20173;-91
2021/12/30 15:24:53;;;;;;;60.95;26.08;;;;;;;;;;6144983;23;20160;-91
2021/12/30 15:27:59;;;;;;;31.27;14.25;;;;;;;;;;6130076;23;20184;-91
2021/12/30 15:31:06;;;;;;;22.17;9.60;;;;;;;;;;6128670;23;20173;-93
2021/12/30 15:34:11;;;;;;;14.63;6.07;;;;;;;;;;6128287;23;20184;-91
2021/12/30 15:37:17;;;;;;;11.52;5.88;;;;;;;;;;6127092;23;20195;-89
2021/12/30 15:40:23;;;;;;;23.23;8.93;;;;;;;;;;6129818;23;20157;-92
2021/12/30 15:43:30;;;;;;;12.38;7.00;;;;;;;;;;6116076;23;20197;-91
2021/12/30 15:46:36;;;;;;;19.95;8.77;;;;;;;;;;6116350;23;20170;-92
2021/12/30 15:49:42;;;;;;;17.50;7.07;;;;;;;;;;6117389;23;20233;-91
2021/12/30 15:52:50;;;;;;;14.23;5.97;;;;;;;;;;6117447;23;20198;-90
2021/12/30 15:55:55;;;;;;;12.30;5.82;;;;;;;;;;6118563;23;20171;-89
2021/12/30 15:59:01;;;;;;;16.65;8.98;;;;;;;;;;6118454;23;20181;-91
2021/12/30 16:02:10;;;;;;;13.13;6.68;;;;;;;;;;6118489;23;20255;-91
2021/12/30 16:05:16;;;;;;;22.30;12.38;;;;;;;;;;6116644;23;20249;-91
2021/12/30 16:08:22;;;;;;;19.35;7.47;;;;;;;;;;6117021;23;20222;-90
2021/12/30 16:11:42;;;;;;;28.60;19.42;;;;;;;;;;6119909;23;20157;-92
2021/12/30 16:14:48;;;;;;;14.50;7.75;;;;;;;;;;6117372;23;20177;-91
2021/12/30 16:17:57;;;;;;;17.35;8.25;;;;;;;;;;6114629;23;20194;-90
2021/12/30 16:21:03;;;;;;;25.08;14.27;;;;;;;;;;6113524;23;20554;-89
2021/12/30 16:24:08;;;;;;;12.10;6.60;;;;;;;;;;6113788;23;20175;-89
2021/12/30 16:27:14;;;;;;;12.38;6.47;;;;;;;;;;6113055;23;20493;-89
2021/12/30 16:30:20;;;;;;;12.88;7.07;;;;;;;;;;6114616;23;20218;-90
2021/12/30 16:33:29;;;;;;;17.15;9.60;;;;;;;;;;6115302;23;20239;-91
2021/12/30 16:36:35;;;;;;;17.40;8.90;;;;;;;;;;6114142;23;20257;-90
2021/12/30 16:39:40;;;;;;;22.35;11.43;;;;;;;;;;6113475;23;20228;-91
2021/12/30 16:42:47;;;;;;;19.23;9.60;;;;;;;;;;6114741;23;20196;-91
2021/12/30 16:45:55;;;;;;;15.32;7.72;;;;;;;;;;6116176;23;20158;-90
2021/12/30 16:49:01;;;;;;;21.48;11.27;;;;;;;;;;6116186;23;20161;-89
2021/12/30 16:52:08;;;;;;;21.08;10.45;;;;;;;;;;6113619;23;20177;-90
2021/12/30 16:55:14;;;;;;;22.35;9.70;;;;;;;;;;6113841;23;20214;-92
2021/12/30 16:58:20;;;;;;;15.95;8.93;;;;;;;;;;6114722;23;20161;-90
2021/12/30 17:01:26;;;;;;;15.05;8.88;;;;;;;;;;6115595;23;20185;-91
2021/12/30 17:04:34;;;;;;;18.27;9.88;;;;;;;;;;6114091;23;20307;-92
2021/12/30 17:07:40;;;;;;;17.13;8.82;;;;;;;;;;6115005;23;20630;-92
2021/12/30 17:10:48;;;;;;;22.88;10.32;;;;;;;;;;6115694;23;20174;-90
2021/12/30 17:13:55;;;;;;;24.52;11.23;;;;;;;;;;6115840;23;20590;-89
2021/12/30 17:17:01;;;;;;;16.65;9.13;;;;;;;;;;6114082;23;20258;-91
2021/12/30 17:20:09;;;;;;;21.23;9.88;;;;;;;;;;6114270;23;20153;-93
2021/12/30 17:23:17;;;;;;;22.42;11.90;;;;;;;;;;6114448;23;20195;-92
2021/12/30 17:26:28;;;;;;;22.30;10.30;;;;;;;;;;6111824;23;20181;-91
2021/12/30 17:29:34;;;;;;;32.20;14.23;;;;;;;;;;6114851;23;20162;-89
2021/12/30 17:32:40;;;;;;;28.40;13.43;;;;;;;;;;6113084;23;20173;-90
2021/12/30 17:35:47;;;;;;;30.70;13.07;;;;;;;;;;6114495;23;20178;-89
2021/12/30 17:38:53;;;;;;;24.45;11.70;;;;;;;;;;6114988;23;20194;-89
2021/12/30 17:41:59;;;;;;;18.45;9.90;;;;;;;;;;6120873;23;20216;-89
2021/12/30 17:45:05;;;;;;;18.80;9.20;;;;;;;;;;6124951;23;20173;-90
2021/12/30 17:48:11;;;;;;;93.45;30.25;;;;;;;;;;6144593;23;20279;-90
2021/12/30 17:51:18;;;;;;;42.63;16.63;;;;;;;;;;6143653;23;20248;-90
2021/12/30 17:54:24;;;;;;;23.13;10.10;;;;;;;;;;6128462;23;20204;-90
2021/12/30 17:57:29;;;;;;;18.52;8.32;;;;;;;;;;6125950;23;20177;-91
2021/12/30 18:00:35;;;;;;;19.83;9.68;;;;;;;;;;6125315;23;20169;-91
2021/12/30 18:03:40;;;;;;;20.30;11.02;;;;;;;;;;6125329;23;20335;-91
2021/12/30 18:06:47;;;;;;;24.45;10.90;;;;;;;;;;6124123;23;20579;-90
2021/12/30 18:32:56;;;;;;;30.00;13.32;;;;;;;;;;6116566;23;20188;-90
2021/12/30 18:36:01;;;;;;;20.90;9.73;;;;;;;;;;6157988;23;20527;-93
2021/12/30 19:20:15;;;;;;;8.57;4.80;;;;;;;;;;6191986;23;20216;-92
2021/12/30 19:23:21;;;;;;;8.18;4.32;;;;;;;;;;6186321;23;20163;-90
2021/12/30 19:26:26;;;;;;;7.80;3.88;;;;;;;;;;6186268;23;20176;-91
2021/12/30 19:29:32;;;;;;;10.75;5.60;;;;;;;;;;6184434;23;20175;-92
2021/12/30 19:32:39;;;;;;;10.75;5.97;;;;;;;;;;6186202;23;20167;-93
2021/12/30 19:35:46;;;;;;;8.88;5.53;;;;;;;;;;6188130;23;20159;-92
2021/12/30 19:38:52;;;;;;;7.25;4.80;;;;;;;;;;6189489;23;20167;-91
2021/12/30 19:41:58;;;;;;;13.75;6.18;;;;;;;;;;6186248;23;20187;-94
2021/12/30 19:45:04;;;;;;;12.45;5.18;;;;;;;;;;6188194;23;20172;-91
2021/12/30 19:48:15;;;;;;;11.98;6.13;;;;;;;;;;6184813;23;20220;-93
2021/12/30 19:51:22;;;;;;;21.58;10.00;;;;;;;;;;6185961;23;20161;-92
2021/12/30 19:54:29;;;;;;;24.00;10.30;;;;;;;;;;6184069;23;20180;-92
2021/12/30 19:57:35;;;;;;;9.18;4.60;;;;;;;;;;6184621;23;20168;-93
2021/12/30 20:00:45;;;;;;;25.35;10.98;;;;;;;;;;6186826;23;20204;-93
2021/12/30 20:03:50;;;;;;;8.77;5.07;;;;;;;;;;6184759;23;20212;-93
2021/12/30 20:06:57;;;;;;;7.75;4.38;;;;;;;;;;6186553;23;20189;-93
2021/12/30 20:10:02;;;;;;;11.27;5.65;;;;;;;;;;6186806;23;20223;-93
2021/12/30 20:13:08;;;;;;;7.18;3.97;;;;;;;;;;6185174;23;20152;-92
2021/12/30 20:16:14;;;;;;;7.40;4.40;;;;;;;;;;6186763;23;20564;-92
2021/12/30 20:19:20;;;;;;;9.30;4.53;;;;;;;;;;6175274;23;20519;-92
2021/12/30 20:22:27;;;;;;;9.27;3.38;;;;;;;;;;6173679;23;20185;-94
2021/12/30 20:25:33;;;;;;;7.00;4.13;;;;;;;;;;6174570;23;20176;-92
2021/12/30 20:28:40;;;;;;;4.55;2.60;;;;;;;;;;6174756;23;20214;-92
2021/12/30 20:31:46;;;;;;;3.72;2.45;;;;;;;;;;6173742;23;20229;-93
2021/12/30 21:39:25;;;;;;;21.30;8.70;;;;;;;;;;6183297;23;20212;-91
2021/12/30 21:42:30;;;;;;;20.17;7.85;;;;;;;;;;6188702;23;20175;-91
